LFKC/CLY METAR and TAF weather

Enter ICAO airport designator
Station Type Date Time Source
LFKC METAR 2022/06/30 13:00 UTC NOAA

LFKC 301300Z AUTO 35010KT 320V030 CAVOK 28/18 Q1013 NOSIG


Station Type Date Time Source
LFKC Decoded METAR 2022/06/30 13:00 UTC NOAA

Calvi, France (LFKC) 42-32N 008-48E 58M
Jun 30, 2022 - 09:00 AM EDT / 2022.06.30 1300 UTC
Wind: from the N (350 degrees) at 12 MPH (10 KT) (direction variable):0
Visibility: greater than 7 mile(s):0
Temperature: 82 F (28 C)
Dew Point: 64 F (18 C)
Relative Humidity: 54%
Pressure (altimeter): 29.91 in. Hg (1013 hPa)
ob: LFKC 301300Z AUTO 35010KT 320V030 CAVOK 28/18 Q1013 NOSIG
cycle: 13

Station Type Date Time Source
LFKC TAF 2022/06/30 09:50 UTC NOAA

TAF LFKC 300800Z 3009/0109 36010KT CAVOK TX30/3012Z TN19/0103Z
BECMG 3018/3020 18006KT

Example: see airport list